Time;durP1;ratioP1;P1;durP2;ratioP2;P2;SDS_P1;SDS_P2;PMS_P1;PMS_P2;Temp;Humidity;BMP_temperature;BMP_pressure;BME280_temperature;BME280_humidity;BME280_pressure;Samples;Min_cycle;Max_cycle;Signal;HPM_P1;HPM_P2
2021/12/31 00:01:02;;;;;;;;;;;19.40;56.00;;;;;;5032132;28;1265;-70
2021/12/31 00:03:28;;;;;;;;;;;19.40;56.10;;;;;;5029915;28;1369;-70
2021/12/31 00:05:53;;;;;;;;;;;19.40;56.10;;;;;;5030622;28;1276;-69
2021/12/31 00:08:18;;;;;;;;;;;19.40;56.10;;;;;;5031928;28;1349;-69
2021/12/31 00:10:44;;;;;;;;;;;19.40;56.20;;;;;;5031733;28;1362;-70
2021/12/31 00:13:10;;;;;;;;;;;19.40;56.20;;;;;;5031558;28;1956;-71
2021/12/31 00:15:35;;;;;;;;;;;19.40;56.20;;;;;;5031792;28;1351;-71
2021/12/31 00:18:00;;;;;;;;;;;19.40;56.20;;;;;;5031930;28;1107;-71
2021/12/31 00:20:26;;;;;;;;;;;19.40;56.20;;;;;;5031622;28;1032;-70
2021/12/31 00:25:23;;;;;;;;;;;19.30;56.20;;;;;;5030760;28;1341;-68
2021/12/31 00:27:49;;;;;;;;;;;19.30;56.30;;;;;;5030485;28;1339;-68
2021/12/31 00:30:14;;;;;;;;;;;19.30;56.30;;;;;;5031430;28;1078;-69
2021/12/31 00:32:40;;;;;;;;;;;19.30;56.30;;;;;;5031251;28;1898;-69
2021/12/31 00:35:06;;;;;;;;;;;19.30;56.30;;;;;;5048741;22;3897;-69
2021/12/31 00:37:32;;;;;;;;;;;19.30;56.40;;;;;;5051695;28;1734;-70
2021/12/31 00:39:57;;;;;;;;;;;19.30;56.40;;;;;;5052051;28;1374;-70
2021/12/31 00:42:23;;;;;;;;;;;19.30;56.40;;;;;;5052436;28;815;-69
2021/12/31 00:44:48;;;;;;;;;;;19.30;56.40;;;;;;5049052;28;1395;-70
2021/12/31 00:47:14;;;;;;;;;;;19.30;56.40;;;;;;5036670;28;1641;-69
2021/12/31 00:49:39;;;;;;;;;;;19.30;56.50;;;;;;5037251;28;1202;-69
2021/12/31 00:52:04;;;;;;;;;;;19.30;56.50;;;;;;5037056;28;1909;-69
2021/12/31 00:54:30;;;;;;;;;;;19.20;56.50;;;;;;5035458;28;1374;-70
2021/12/31 00:57:02;;;;;;;;;;;19.20;56.50;;;;;;5041274;28;1684;-68
2021/12/31 00:59:27;;;;;;;;;;;19.20;56.50;;;;;;5039215;28;1474;-69
2021/12/31 01:01:53;;;;;;;;;;;19.20;56.60;;;;;;5037435;28;1758;-69
2021/12/31 01:04:19;;;;;;;;;;;19.20;56.60;;;;;;5052568;28;1370;-69
2021/12/31 01:06:44;;;;;;;;;;;19.20;56.60;;;;;;5039365;28;1476;-69
2021/12/31 01:09:09;;;;;;;;;;;19.20;56.60;;;;;;5037383;28;1159;-68
2021/12/31 01:11:35;;;;;;;;;;;19.20;56.60;;;;;;5037902;28;1910;-70
2021/12/31 01:14:04;;;;;;;;;;;19.20;56.70;;;;;;5038753;28;1496;-71
2021/12/31 01:16:39;;;;;;;;;;;19.20;56.70;;;;;;5036768;28;1390;-70
2021/12/31 01:21:33;;;;;;;;;;;19.20;56.70;;;;;;5035890;28;1413;-70
2021/12/31 01:24:00;;;;;;;;;;;19.20;56.70;;;;;;5033643;28;1219;-70
2021/12/31 01:26:25;;;;;;;;;;;19.20;56.70;;;;;;5035239;28;1407;-70
2021/12/31 01:28:51;;;;;;;;;;;19.20;56.70;;;;;;5035109;28;1511;-70
2021/12/31 01:31:16;;;;;;;;;;;19.20;56.70;;;;;;5035107;28;1957;-70
2021/12/31 01:33:42;;;;;;;;;;;19.10;56.70;;;;;;5032870;28;1460;-70
2021/12/31 01:36:07;;;;;;;;;;;19.10;56.70;;;;;;5035766;28;1534;-69
2021/12/31 01:38:34;;;;;;;;;;;19.10;56.70;;;;;;5034371;28;1179;-69
2021/12/31 01:41:00;;;;;;;;;;;19.10;56.80;;;;;;5036255;28;1445;-69
2021/12/31 01:43:25;;;;;;;;;;;19.20;56.80;;;;;;5035451;28;1378;-69
2021/12/31 01:45:55;;;;;;;;;;;19.10;56.80;;;;;;5035018;28;1395;-69
2021/12/31 01:48:24;;;;;;;;;;;19.10;56.80;;;;;;5034701;28;1344;-69
2021/12/31 01:50:49;;;;;;;;;;;19.10;56.80;;;;;;5033368;28;1480;-69
2021/12/31 01:53:15;;;;;;;;;;;19.10;56.90;;;;;;5034369;28;1902;-69
2021/12/31 01:55:41;;;;;;;;;;;19.10;56.90;;;;;;5038705;28;1370;-70
2021/12/31 01:58:07;;;;;;;;;;;19.10;56.90;;;;;;5039599;28;1721;-70
2021/12/31 02:00:33;;;;;;;;;;;19.10;56.90;;;;;;5020302;28;1557;-70
2021/12/31 02:03:00;;;;;;;;;;;19.10;56.90;;;;;;5037341;28;1605;-70
2021/12/31 02:05:25;;;;;;;;;;;19.10;56.90;;;;;;5037025;28;1437;-70
2021/12/31 02:07:51;;;;;;;;;;;19.10;56.90;;;;;;5038819;28;1099;-70
2021/12/31 02:10:16;;;;;;;;;;;19.10;57.00;;;;;;5037593;28;1412;-69
2021/12/31 02:12:43;;;;;;;;;;;19.00;56.90;;;;;;5038478;28;1890;-70
2021/12/31 02:15:08;;;;;;;;;;;19.00;56.90;;;;;;5020126;28;1440;-70
2021/12/31 02:17:34;;;;;;;;;;;19.00;57.00;;;;;;5017387;28;1425;-70
2021/12/31 02:20:04;;;;;;;;;;;19.00;57.00;;;;;;5034735;28;1420;-70
2021/12/31 02:22:29;;;;;;;;;;;19.00;57.00;;;;;;5034676;28;1378;-70
2021/12/31 02:24:55;;;;;;;;;;;19.00;57.00;;;;;;5033744;28;1468;-70
2021/12/31 02:27:21;;;;;;;;;;;19.00;57.00;;;;;;5033506;28;1461;-70
2021/12/31 02:29:47;;;;;;;;;;;19.00;57.00;;;;;;5033725;28;1382;-70
2021/12/31 02:32:12;;;;;;;;;;;19.00;57.00;;;;;;5034061;28;1882;-70
2021/12/31 02:34:38;;;;;;;;;;;19.00;57.00;;;;;;5033490;28;1362;-70
2021/12/31 02:37:03;;;;;;;;;;;19.00;57.00;;;;;;5033389;28;1509;-70
2021/12/31 02:39:28;;;;;;;;;;;19.00;57.00;;;;;;5035349;28;1448;-70
2021/12/31 02:41:54;;;;;;;;;;;19.10;57.00;;;;;;5034014;28;1703;-70
2021/12/31 02:44:19;;;;;;;;;;;19.10;56.90;;;;;;5034977;28;1384;-69
2021/12/31 02:46:45;;;;;;;;;;;19.20;56.90;;;;;;5036022;28;1508;-70
2021/12/31 02:49:10;;;;;;;;;;;19.20;56.70;;;;;;5034784;28;1138;-71
2021/12/31 02:51:36;;;;;;;;;;;19.30;56.60;;;;;;5033519;28;1898;-71
2021/12/31 02:54:03;;;;;;;;;;;19.40;56.50;;;;;;5035026;28;1420;-70
2021/12/31 02:56:29;;;;;;;;;;;19.50;56.30;;;;;;5035609;28;1522;-70
2021/12/31 02:58:55;;;;;;;;;;;19.60;56.20;;;;;;5033757;28;1425;-70
2021/12/31 03:01:20;;;;;;;;;;;19.70;56.00;;;;;;5034629;28;1408;-70
2021/12/31 03:03:46;;;;;;;;;;;19.80;55.80;;;;;;5031662;28;930;-70
2021/12/31 03:06:11;;;;;;;;;;;19.90;55.60;;;;;;5024368;28;1796;-69
2021/12/31 03:08:41;;;;;;;;;;;20.00;55.40;;;;;;5040536;28;1455;-69
2021/12/31 03:11:06;;;;;;;;;;;20.10;55.10;;;;;;5033372;28;1384;-69
2021/12/31 03:13:32;;;;;;;;;;;20.20;54.90;;;;;;5016294;28;1934;-69
2021/12/31 03:15:57;;;;;;;;;;;20.20;54.80;;;;;;5020913;28;1294;-69
2021/12/31 03:18:23;;;;;;;;;;;20.30;54.60;;;;;;5034569;28;1033;-69
2021/12/31 03:21:00;;;;;;;;;;;20.30;54.40;;;;;;5034688;28;1777;-70
2021/12/31 03:23:26;;;;;;;;;;;20.40;54.40;;;;;;5035944;28;1461;-70
2021/12/31 03:25:52;;;;;;;;;;;20.50;54.80;;;;;;5052670;28;1224;-71
2021/12/31 03:28:18;;;;;;;;;;;20.50;54.10;;;;;;5032547;28;1064;-70
2021/12/31 03:30:43;;;;;;;;;;;20.50;53.90;;;;;;5034272;28;1440;-70
2021/12/31 03:33:09;;;;;;;;;;;20.60;53.90;;;;;;5034424;28;1906;-71
2021/12/31 03:35:34;;;;;;;;;;;20.60;53.80;;;;;;5034347;28;1314;-71
2021/12/31 03:38:00;;;;;;;;;;;20.70;53.80;;;;;;5032786;28;1056;-70
2021/12/31 03:40:25;;;;;;;;;;;20.70;53.70;;;;;;5034226;28;1110;-71
2021/12/31 03:42:51;;;;;;;;;;;20.70;53.70;;;;;;5032452;28;1096;-71
2021/12/31 03:45:16;;;;;;;;;;;20.70;53.60;;;;;;5034024;28;1279;-71
2021/12/31 03:47:42;;;;;;;;;;;20.80;54.10;;;;;;5033697;28;1143;-70
2021/12/31 03:50:07;;;;;;;;;;;20.80;53.50;;;;;;5032584;28;1104;-71
2021/12/31 03:52:35;;;;;;;;;;;20.80;53.50;;;;;;5032431;28;1918;-70
2021/12/31 03:55:01;;;;;;;;;;;20.80;53.50;;;;;;5033863;28;1247;-71
2021/12/31 03:57:26;;;;;;;;;;;20.80;53.50;;;;;;5034085;28;1108;-71
2021/12/31 03:59:54;;;;;;;;;;;20.80;53.40;;;;;;5032316;28;1076;-71
2021/12/31 04:02:19;;;;;;;;;;;20.80;53.40;;;;;;5032340;28;1441;-71
2021/12/31 04:04:45;;;;;;;;;;;20.80;53.40;;;;;;5033033;28;1269;-70
2021/12/31 04:07:10;;;;;;;;;;;20.80;53.40;;;;;;5033223;28;1084;-71
2021/12/31 04:09:36;;;;;;;;;;;20.80;53.40;;;;;;5033677;28;1158;-71
2021/12/31 04:12:01;;;;;;;;;;;20.80;53.40;;;;;;5032886;28;1902;-71
2021/12/31 04:14:27;;;;;;;;;;;20.80;53.40;;;;;;5033121;28;1294;-70
2021/12/31 04:16:52;;;;;;;;;;;20.80;53.50;;;;;;5034066;28;1131;-70
2021/12/31 04:19:17;;;;;;;;;;;20.80;53.50;;;;;;5034959;28;1174;-71
2021/12/31 04:21:44;;;;;;;;;;;20.70;53.50;;;;;;5036367;28;1092;-70
2021/12/31 04:24:27;;;;;;;;;;;20.70;53.50;;;;;;5037438;28;1095;-70
2021/12/31 04:26:53;;;;;;;;;;;20.70;53.60;;;;;;5037658;28;1472;-71
2021/12/31 04:29:18;;;;;;;;;;;20.70;53.60;;;;;;5037514;28;1148;-71
2021/12/31 04:31:43;;;;;;;;;;;20.70;54.30;;;;;;5037368;28;1966;-71
2021/12/31 04:34:09;;;;;;;;;;;20.70;53.70;;;;;;5037203;28;1116;-71
2021/12/31 04:36:34;;;;;;;;;;;20.70;53.80;;;;;;5036154;28;1219;-71
2021/12/31 04:39:00;;;;;;;;;;;20.70;53.80;;;;;;5036656;28;1268;-71
2021/12/31 04:41:25;;;;;;;;;;;20.60;53.80;;;;;;5037640;28;1090;-71
2021/12/31 04:43:50;;;;;;;;;;;20.70;53.80;;;;;;5036273;28;1111;-71
2021/12/31 04:46:16;;;;;;;;;;;20.60;53.80;;;;;;5035889;28;1320;-71
2021/12/31 04:48:41;;;;;;;;;;;20.60;53.90;;;;;;5037115;28;1048;-71
2021/12/31 04:51:07;;;;;;;;;;;20.60;53.90;;;;;;5036400;28;1290;-71
2021/12/31 04:53:33;;;;;;;;;;;20.60;54.00;;;;;;5036737;28;1965;-70
2021/12/31 04:55:59;;;;;;;;;;;20.60;54.00;;;;;;5036684;28;1345;-71
2021/12/31 04:58:24;;;;;;;;;;;20.60;54.00;;;;;;5035702;28;1072;-71
2021/12/31 05:00:50;;;;;;;;;;;20.60;54.00;;;;;;5034786;28;1268;-70
2021/12/31 05:03:15;;;;;;;;;;;20.60;54.10;;;;;;5035108;28;1118;-70
2021/12/31 05:05:41;;;;;;;;;;;20.50;54.10;;;;;;5036544;28;1352;-70
2021/12/31 05:08:06;;;;;;;;;;;20.50;54.10;;;;;;5036934;28;1386;-71
2021/12/31 05:10:32;;;;;;;;;;;20.50;54.10;;;;;;5035674;28;1238;-71
2021/12/31 05:13:01;;;;;;;;;;;20.50;54.10;;;;;;5034920;28;1960;-70
2021/12/31 05:15:30;;;;;;;;;;;20.50;54.20;;;;;;5035103;28;1284;-70
2021/12/31 05:17:55;;;;;;;;;;;20.50;54.20;;;;;;5035634;28;972;-70
2021/12/31 05:20:21;;;;;;;;;;;20.50;54.30;;;;;;5036016;28;1091;-71
2021/12/31 05:22:46;;;;;;;;;;;20.50;54.30;;;;;;5036280;28;1139;-70
2021/12/31 05:25:11;;;;;;;;;;;20.50;54.30;;;;;;5034857;28;1270;-71
2021/12/31 05:27:37;;;;;;;;;;;20.40;54.30;;;;;;5036100;28;1087;-70
2021/12/31 05:30:03;;;;;;;;;;;20.40;54.30;;;;;;5034376;28;1058;-71
2021/12/31 05:32:28;;;;;;;;;;;20.40;54.30;;;;;;5035045;28;1894;-70
2021/12/31 05:34:54;;;;;;;;;;;20.40;54.40;;;;;;5034224;28;1275;-70
2021/12/31 05:37:19;;;;;;;;;;;20.40;54.40;;;;;;5035286;28;1088;-71
2021/12/31 05:39:45;;;;;;;;;;;20.40;54.40;;;;;;5036737;28;1000;-71
2021/12/31 05:42:11;;;;;;;;;;;20.40;54.40;;;;;;5035707;28;1052;-70
2021/12/31 05:44:36;;;;;;;;;;;20.40;54.40;;;;;;5035287;28;1383;-70
2021/12/31 05:47:01;;;;;;;;;;;20.40;54.40;;;;;;5017976;28;1147;-70
2021/12/31 05:49:27;;;;;;;;;;;20.30;54.40;;;;;;5035584;28;1066;-70
2021/12/31 05:51:53;;;;;;;;;;;20.40;54.50;;;;;;5034747;28;1967;-70
2021/12/31 05:54:18;;;;;;;;;;;20.30;54.50;;;;;;5034047;28;977;-71
2021/12/31 05:56:44;;;;;;;;;;;20.40;54.60;;;;;;5035396;28;1306;-70
2021/12/31 05:59:09;;;;;;;;;;;20.30;54.50;;;;;;5035665;28;1091;-70
2021/12/31 06:01:35;;;;;;;;;;;20.30;54.60;;;;;;5033779;28;1022;-71
2021/12/31 06:04:00;;;;;;;;;;;20.30;54.60;;;;;;5034097;28;1092;-71
2021/12/31 06:06:25;;;;;;;;;;;20.30;54.60;;;;;;5035514;28;1193;-71
2021/12/31 06:08:51;;;;;;;;;;;20.30;54.60;;;;;;5033660;28;1084;-71
2021/12/31 06:11:16;;;;;;;;;;;20.30;54.70;;;;;;5035871;28;1906;-71
2021/12/31 06:13:43;;;;;;;;;;;20.30;54.70;;;;;;5034907;28;1099;-70
2021/12/31 06:16:10;;;;;;;;;;;20.30;54.70;;;;;;5019838;28;1297;-69
2021/12/31 06:18:35;;;;;;;;;;;20.30;54.80;;;;;;5032044;28;1167;-70
2021/12/31 06:21:00;;;;;;;;;;;20.30;54.80;;;;;;5033109;28;1067;-69
2021/12/31 06:23:26;;;;;;;;;;;20.20;54.70;;;;;;5031562;28;1088;-70
2021/12/31 06:25:51;;;;;;;;;;;20.20;54.80;;;;;;5033501;28;1296;-71
2021/12/31 06:28:17;;;;;;;;;;;20.20;54.80;;;;;;5033444;28;1180;-70
2021/12/31 06:30:42;;;;;;;;;;;20.20;54.80;;;;;;5033009;28;1143;-70
2021/12/31 06:33:08;;;;;;;;;;;20.20;54.90;;;;;;5032598;28;1914;-69
2021/12/31 06:35:33;;;;;;;;;;;20.20;54.90;;;;;;5054783;22;1958;-70
2021/12/31 06:38:01;;;;;;;;;;;20.20;54.90;;;;;;5046951;28;983;-70
2021/12/31 06:40:26;;;;;;;;;;;20.20;54.90;;;;;;5053084;28;983;-70
2021/12/31 06:42:52;;;;;;;;;;;20.20;55.00;;;;;;5065682;28;1399;-70
2021/12/31 06:45:17;;;;;;;;;;;20.20;55.00;;;;;;5064710;28;1342;-70
2021/12/31 06:47:43;;;;;;;;;;;20.20;55.00;;;;;;5052694;28;1090;-70
2021/12/31 06:50:08;;;;;;;;;;;20.10;55.00;;;;;;5052886;28;1062;-70
2021/12/31 06:52:38;;;;;;;;;;;20.10;55.00;;;;;;5052926;28;1914;-70
2021/12/31 06:55:03;;;;;;;;;;;20.10;55.10;;;;;;5051124;28;1390;-70
2021/12/31 06:57:29;;;;;;;;;;;20.10;55.10;;;;;;5052635;28;1139;-70
2021/12/31 06:59:54;;;;;;;;;;;20.10;55.10;;;;;;5052687;28;1071;-70
2021/12/31 07:02:20;;;;;;;;;;;20.10;55.10;;;;;;5052294;28;1153;-69
2021/12/31 07:04:45;;;;;;;;;;;20.10;55.10;;;;;;5050709;28;1103;-70
2021/12/31 07:07:11;;;;;;;;;;;20.10;55.20;;;;;;5051291;28;1307;-70
2021/12/31 07:09:36;;;;;;;;;;;20.10;55.20;;;;;;5052136;28;1090;-69
2021/12/31 07:12:02;;;;;;;;;;;20.10;55.20;;;;;;5052414;28;1961;-69
2021/12/31 07:14:27;;;;;;;;;;;20.10;55.20;;;;;;5051974;28;1063;-71
2021/12/31 07:16:53;;;;;;;;;;;20.10;55.20;;;;;;5050742;28;1496;-72
2021/12/31 07:19:18;;;;;;;;;;;20.10;55.30;;;;;;5051242;28;1107;-70
2021/12/31 07:21:43;;;;;;;;;;;20.00;55.20;;;;;;5052322;28;1126;-70
2021/12/31 07:24:09;;;;;;;;;;;20.00;55.20;;;;;;5051752;28;1360;-69
2021/12/31 07:26:34;;;;;;;;;;;20.00;55.30;;;;;;5050936;28;1305;-70
2021/12/31 07:29:00;;;;;;;;;;;20.00;55.30;;;;;;5052535;28;1218;-71
2021/12/31 07:31:25;;;;;;;;;;;20.00;55.30;;;;;;5052024;28;1961;-70
2021/12/31 07:33:51;;;;;;;;;;;20.00;55.30;;;;;;5037145;28;1026;-70
2021/12/31 07:36:16;;;;;;;;;;;20.00;55.30;;;;;;5051937;28;1358;-71
2021/12/31 07:38:48;;;;;;;;;;;20.00;55.30;;;;;;5051864;28;1114;-69
2021/12/31 07:41:13;;;;;;;;;;;20.00;55.30;;;;;;5051078;28;1142;-70
2021/12/31 07:43:39;;;;;;;;;;;20.00;55.30;;;;;;5051796;28;1059;-71
2021/12/31 07:46:04;;;;;;;;;;;20.10;55.30;;;;;;5051683;28;1276;-69
2021/12/31 07:48:29;;;;;;;;;;;20.20;55.20;;;;;;5051080;28;1112;-69
2021/12/31 07:50:55;;;;;;;;;;;20.20;55.10;;;;;;5051662;28;1063;-71
2021/12/31 07:53:20;;;;;;;;;;;20.30;54.90;;;;;;5049084;28;1969;-71
2021/12/31 07:55:46;;;;;;;;;;;20.30;54.80;;;;;;5046676;28;1626;-70
2021/12/31 07:58:11;;;;;;;;;;;20.40;54.70;;;;;;5053287;28;1082;-70
2021/12/31 08:00:37;;;;;;;;;;;20.50;54.60;;;;;;5049889;28;1181;-70
2021/12/31 08:03:02;;;;;;;;;;;20.60;54.50;;;;;;5041820;28;1370;-69
2021/12/31 08:05:28;;;;;;;;;;;20.60;54.30;;;;;;5055938;28;1313;-70
2021/12/31 08:07:54;;;;;;;;;;;20.70;54.30;;;;;;5034228;28;1447;-70
2021/12/31 08:10:19;;;;;;;;;;;20.70;54.10;;;;;;5054531;28;1135;-70
2021/12/31 08:12:45;;;;;;;;;;;20.80;54.00;;;;;;5045346;28;1951;-71
2021/12/31 08:15:10;;;;;;;;;;;20.80;53.90;;;;;;5055806;28;1404;-72
2021/12/31 08:17:36;;;;;;;;;;;20.90;53.80;;;;;;5055003;28;1315;-72
2021/12/31 08:20:01;;;;;;;;;;;20.90;53.70;;;;;;5053097;28;1434;-70
2021/12/31 08:22:26;;;;;;;;;;;20.90;53.70;;;;;;5055295;28;1071;-70
2021/12/31 08:24:52;;;;;;;;;;;20.90;53.60;;;;;;5053073;28;1000;-68
2021/12/31 08:27:17;;;;;;;;;;;20.90;53.50;;;;;;5054407;28;1437;-68
2021/12/31 08:29:43;;;;;;;;;;;20.90;53.50;;;;;;5055663;28;1075;-69
2021/12/31 08:32:08;;;;;;;;;;;21.00;53.60;;;;;;5054922;28;1890;-69
2021/12/31 08:34:34;;;;;;;;;;;21.00;53.50;;;;;;5053998;28;1080;-69
2021/12/31 08:36:59;;;;;;;;;;;21.00;53.50;;;;;;5053753;28;1343;-69
2021/12/31 08:39:24;;;;;;;;;;;20.90;53.50;;;;;;5055239;28;1270;-70
2021/12/31 08:41:50;;;;;;;;;;;20.90;53.50;;;;;;5053794;28;1123;-69
2021/12/31 08:44:16;;;;;;;;;;;20.90;53.60;;;;;;5053642;28;1052;-69
2021/12/31 08:46:42;;;;;;;;;;;20.90;53.60;;;;;;5053816;28;1354;-69
2021/12/31 08:49:07;;;;;;;;;;;20.90;53.60;;;;;;5037396;28;1354;-69
2021/12/31 08:51:32;;;;;;;;;;;20.90;53.60;;;;;;5054589;28;1898;-68
2021/12/31 08:53:58;;;;;;;;;;;20.90;53.70;;;;;;5053408;28;1075;-68
2021/12/31 08:56:23;;;;;;;;;;;20.90;53.70;;;;;;5053290;28;1340;-69
2021/12/31 08:58:49;;;;;;;;;;;20.90;53.70;;;;;;5055103;28;1240;-69
2021/12/31 09:01:14;;;;;;;;;;;20.90;53.80;;;;;;5031889;28;1220;-69
2021/12/31 09:03:40;;;;;;;;;;;20.80;53.80;;;;;;5033398;28;1095;-69
2021/12/31 09:06:05;;;;;;;;;;;20.80;53.80;;;;;;5052264;28;1338;-69
2021/12/31 09:08:31;;;;;;;;;;;20.80;53.80;;;;;;5053639;28;1327;-69
2021/12/31 09:10:57;;;;;;;;;;;20.80;53.90;;;;;;5020043;28;1135;-69
2021/12/31 09:13:22;;;;;;;;;;;20.80;53.90;;;;;;5036331;28;1965;-69
2021/12/31 09:15:48;;;;;;;;;;;20.80;54.00;;;;;;5054410;28;1356;-69
2021/12/31 09:18:14;;;;;;;;;;;20.80;54.00;;;;;;5053652;28;1281;-69
2021/12/31 09:20:39;;;;;;;;;;;20.80;54.00;;;;;;5053982;28;1350;-69
2021/12/31 09:23:05;;;;;;;;;;;20.80;54.00;;;;;;5053305;28;1102;-69
2021/12/31 09:25:30;;;;;;;;;;;20.80;54.10;;;;;;5054627;28;1321;-69
2021/12/31 09:27:56;;;;;;;;;;;20.70;54.10;;;;;;5054168;28;1391;-68
2021/12/31 09:30:21;;;;;;;;;;;20.70;54.10;;;;;;5054076;28;1297;-69
2021/12/31 09:32:47;;;;;;;;;;;20.70;54.10;;;;;;5054086;28;1968;-69
2021/12/31 09:35:12;;;;;;;;;;;20.70;54.10;;;;;;5053889;28;1436;-68
2021/12/31 09:37:38;;;;;;;;;;;20.70;54.20;;;;;;5053165;28;1125;-68
2021/12/31 09:40:03;;;;;;;;;;;20.80;54.20;;;;;;5024280;28;1569;-68
2021/12/31 09:42:29;;;;;;;;;;;20.80;54.10;;;;;;5041647;28;1280;-68
2021/12/31 09:44:54;;;;;;;;;;;20.80;54.20;;;;;;5052494;28;1269;-68
2021/12/31 09:47:20;;;;;;;;;;;20.80;54.10;;;;;;5051741;28;1347;-68
2021/12/31 09:49:46;;;;;;;;;;;20.80;54.00;;;;;;5052350;28;1249;-68
2021/12/31 09:52:12;;;;;;;;;;;20.90;54.00;;;;;;5053439;28;1968;-68
2021/12/31 09:54:41;;;;;;;;;;;20.90;53.80;;;;;;5052577;28;1337;-68
2021/12/31 09:57:17;;;;;;;;;;;21.00;53.80;;;;;;5052925;28;1212;-68
2021/12/31 09:59:42;;;;;;;;;;;21.00;53.80;;;;;;5053631;28;1379;-68
2021/12/31 10:02:09;;;;;;;;;;;21.00;53.70;;;;;;5039506;28;1244;-68
2021/12/31 10:04:53;;;;;;;;;;;21.00;53.60;;;;;;5051353;28;1008;-68
2021/12/31 10:07:21;;;;;;;;;;;21.10;53.60;;;;;;5051583;28;1399;-68
2021/12/31 10:10:01;;;;;;;;;;;21.10;53.60;;;;;;5051648;28;1230;-67
2021/12/31 10:12:38;;;;;;;;;;;21.10;53.50;;;;;;5052599;28;1898;-68
2021/12/31 10:15:03;;;;;;;;;;;21.10;53.50;;;;;;5050625;28;1370;-68
2021/12/31 10:17:37;;;;;;;;;;;21.10;53.50;;;;;;5053235;28;1530;-68
2021/12/31 10:20:03;;;;;;;;;;;21.10;53.50;;;;;;5052605;28;1115;-68
2021/12/31 10:22:28;;;;;;;;;;;21.10;53.50;;;;;;5051094;28;1369;-68
2021/12/31 10:24:54;;;;;;;;;;;21.10;53.60;;;;;;5051861;28;1254;-68
2021/12/31 10:27:20;;;;;;;;;;;21.10;53.60;;;;;;5052258;28;1360;-68
2021/12/31 10:29:59;;;;;;;;;;;21.10;53.60;;;;;;5052850;28;1622;-67
2021/12/31 10:32:26;;;;;;;;;;;21.00;53.60;;;;;;5050883;28;1902;-68
2021/12/31 10:34:51;;;;;;;;;;;21.00;53.60;;;;;;5050222;28;1088;-68
2021/12/31 10:37:25;;;;;;;;;;;21.00;53.60;;;;;;5052310;28;1463;-69
2021/12/31 10:39:54;;;;;;;;;;;21.00;53.70;;;;;;5051938;28;1235;-68
2021/12/31 10:42:20;;;;;;;;;;;21.00;53.70;;;;;;5051863;28;1369;-68
2021/12/31 10:44:49;;;;;;;;;;;21.00;53.80;;;;;;5051975;28;1242;-68
2021/12/31 10:47:19;;;;;;;;;;;21.00;53.80;;;;;;5051096;28;1257;-68
2021/12/31 10:49:59;;;;;;;;;;;21.00;53.80;;;;;;5052567;28;1356;-68
2021/12/31 10:52:33;;;;;;;;;;;21.00;53.80;;;;;;5051654;28;1914;-68
2021/12/31 10:55:14;;;;;;;;;;;20.90;53.80;;;;;;5052100;28;1371;-67
2021/12/31 10:57:39;;;;;;;;;;;20.90;54.40;;;;;;5052000;28;1065;-67
2021/12/31 11:00:05;;;;;;;;;;;20.90;53.90;;;;;;5050876;28;1330;-67
2021/12/31 11:02:31;;;;;;;;;;;20.90;53.90;;;;;;5046151;28;1940;-67
2021/12/31 11:04:57;;;;;;;;;;;20.90;54.00;;;;;;5050215;28;1423;-67
2021/12/31 11:07:22;;;;;;;;;;;20.90;54.30;;;;;;5050909;28;1534;-68
2021/12/31 11:09:48;;;;;;;;;;;20.80;54.00;;;;;;5052180;28;1441;-67
2021/12/31 11:12:13;;;;;;;;;;;20.80;54.00;;;;;;5047050;28;1965;-67
2021/12/31 11:14:39;;;;;;;;;;;20.80;54.10;;;;;;5050038;28;1669;-68
2021/12/31 11:17:04;;;;;;;;;;;20.80;54.10;;;;;;5043691;28;1958;-68
2021/12/31 11:19:29;;;;;;;;;;;20.80;54.20;;;;;;5028700;28;1245;-68
2021/12/31 11:21:55;;;;;;;;;;;20.80;54.30;;;;;;5051343;28;1141;-67
2021/12/31 11:24:27;;;;;;;;;;;20.70;54.30;;;;;;5051716;28;1101;-68
2021/12/31 11:26:53;;;;;;;;;;;20.70;54.30;;;;;;5050331;28;1373;-67
2021/12/31 11:29:18;;;;;;;;;;;20.70;54.40;;;;;;5045865;28;1127;-67
2021/12/31 11:31:44;;;;;;;;;;;20.70;54.40;;;;;;5048815;28;1979;-67
2021/12/31 11:34:11;;;;;;;;;;;20.60;54.40;;;;;;5050510;28;1226;-68
2021/12/31 11:36:37;;;;;;;;;;;20.60;54.50;;;;;;5052245;28;1330;-67
2021/12/31 11:39:12;;;;;;;;;;;20.60;54.50;;;;;;5052102;28;1357;-67
2021/12/31 11:41:37;;;;;;;;;;;20.60;54.60;;;;;;5052213;28;1378;-67
2021/12/31 11:44:04;;;;;;;;;;;20.60;54.70;;;;;;5051518;28;1269;-68
2021/12/31 11:46:30;;;;;;;;;;;20.50;54.70;;;;;;5050585;28;1299;-68
2021/12/31 11:48:55;;;;;;;;;;;20.50;54.70;;;;;;5041959;28;2026;-68
2021/12/31 11:51:28;;;;;;;;;;;20.50;54.80;;;;;;5046024;28;1314;-67
2021/12/31 11:53:59;;;;;;;;;;;20.50;54.90;;;;;;5041420;28;1636;-70
2021/12/31 11:56:36;;;;;;;;;;;20.50;54.90;;;;;;5044317;28;1260;-71
2021/12/31 11:59:14;;;;;;;;;;;20.50;55.00;;;;;;5050622;28;1319;-71
2021/12/31 12:01:50;;;;;;;;;;;20.50;54.90;;;;;;5042785;28;1270;-71
2021/12/31 12:04:25;;;;;;;;;;;20.50;54.90;;;;;;5046954;28;1125;-72
2021/12/31 12:06:53;;;;;;;;;;;20.50;54.90;;;;;;5049840;28;1284;-72
2021/12/31 12:09:19;;;;;;;;;;;20.60;54.90;;;;;;5050768;28;1052;-70
2021/12/31 12:12:04;;;;;;;;;;;20.60;54.80;;;;;;5045196;28;1914;-70
2021/12/31 12:14:30;;;;;;;;;;;20.60;54.70;;;;;;5048596;28;1382;-71
2021/12/31 12:16:58;;;;;;;;;;;20.60;54.60;;;;;;5044979;28;1210;-70
2021/12/31 12:19:43;;;;;;;;;;;20.70;54.60;;;;;;5049612;28;1289;-71
2021/12/31 12:22:08;;;;;;;;;;;20.70;54.50;;;;;;5050263;28;1107;-71
2021/12/31 12:24:34;;;;;;;;;;;20.80;54.50;;;;;;5050287;28;1086;-70
2021/12/31 12:27:02;;;;;;;;;;;20.80;54.40;;;;;;5048730;28;1278;-69
2021/12/31 12:29:28;;;;;;;;;;;20.90;54.30;;;;;;5048487;28;1393;-72
2021/12/31 12:32:06;;;;;;;;;;;20.90;54.20;;;;;;5050574;28;1894;-71
2021/12/31 12:34:31;;;;;;;;;;;20.90;54.10;;;;;;5049898;28;1079;-70
2021/12/31 12:36:57;;;;;;;;;;;21.00;54.10;;;;;;5045625;28;1755;-72
2021/12/31 12:39:22;;;;;;;;;;;21.00;54.00;;;;;;5050431;28;990;-71
2021/12/31 12:41:49;;;;;;;;;;;21.00;53.90;;;;;;5051637;28;1259;-70
2021/12/31 12:44:16;;;;;;;;;;;21.10;53.90;;;;;;5047575;28;1207;-71
2021/12/31 12:46:57;;;;;;;;;;;21.10;53.80;;;;;;5055708;28;1267;-69
2021/12/31 12:49:29;;;;;;;;;;;21.10;53.80;;;;;;5053178;28;1080;-70
2021/12/31 12:51:55;;;;;;;;;;;21.10;53.70;;;;;;5053896;28;1914;-68
2021/12/31 12:54:22;;;;;;;;;;;21.10;53.70;;;;;;5053061;28;1471;-69
2021/12/31 12:56:48;;;;;;;;;;;21.10;53.70;;;;;;5052948;28;1303;-68
2021/12/31 12:59:20;;;;;;;;;;;21.20;53.70;;;;;;5054834;28;1071;-69
2021/12/31 13:01:46;;;;;;;;;;;21.10;53.70;;;;;;5053407;28;1206;-69
2021/12/31 13:04:13;;;;;;;;;;;21.10;53.70;;;;;;5053850;28;1068;-68
2021/12/31 13:06:42;;;;;;;;;;;21.10;53.70;;;;;;5053565;28;1290;-69
2021/12/31 13:09:08;;;;;;;;;;;21.10;53.80;;;;;;5053427;28;1327;-69
2021/12/31 13:11:34;;;;;;;;;;;21.10;53.80;;;;;;5055080;28;1969;-67
2021/12/31 13:14:00;;;;;;;;;;;21.10;53.80;;;;;;5053195;28;1378;-68
2021/12/31 13:16:25;;;;;;;;;;;21.10;53.90;;;;;;5054507;28;1216;-68
2021/12/31 13:18:54;;;;;;;;;;;21.00;53.80;;;;;;5054589;28;1568;-68
2021/12/31 13:21:21;;;;;;;;;;;21.10;53.90;;;;;;5053449;28;1301;-69
2021/12/31 13:23:50;;;;;;;;;;;21.00;53.90;;;;;;5053473;28;1408;-69
2021/12/31 13:26:16;;;;;;;;;;;21.00;53.90;;;;;;5053153;28;1369;-67
2021/12/31 13:28:41;;;;;;;;;;;21.00;54.00;;;;;;5054467;28;1329;-68
2021/12/31 13:31:10;;;;;;;;;;;21.00;54.00;;;;;;5054245;28;1249;-69
2021/12/31 13:33:45;;;;;;;;;;;21.00;54.00;;;;;;5054050;28;1953;-68
2021/12/31 13:36:10;;;;;;;;;;;21.00;54.10;;;;;;5052673;28;1388;-68
2021/12/31 13:38:54;;;;;;;;;;;21.00;54.10;;;;;;5054209;28;1426;-68
2021/12/31 13:41:23;;;;;;;;;;;20.90;54.10;;;;;;5053814;28;1308;-67
2021/12/31 13:44:06;;;;;;;;;;;20.90;54.10;;;;;;5053869;28;1275;-68
2021/12/31 13:46:36;;;;;;;;;;;20.90;54.10;;;;;;5053804;28;1356;-68
2021/12/31 13:49:09;;;;;;;;;;;20.90;54.20;;;;;;5053431;28;1282;-68
2021/12/31 13:51:35;;;;;;;;;;;20.90;54.20;;;;;;5053254;28;1977;-69
2021/12/31 13:54:01;;;;;;;;;;;20.90;54.20;;;;;;5053494;28;1271;-68
2021/12/31 13:56:36;;;;;;;;;;;20.90;54.30;;;;;;5052584;28;1293;-68
2021/12/31 13:59:23;;;;;;;;;;;20.80;54.30;;;;;;5053644;28;1348;-68
2021/12/31 14:02:01;;;;;;;;;;;20.90;54.30;;;;;;5053143;28;1370;-68
2021/12/31 14:04:26;;;;;;;;;;;20.80;54.30;;;;;;5052389;28;1408;-68
2021/12/31 14:06:55;;;;;;;;;;;20.80;54.40;;;;;;5053402;28;1319;-68
2021/12/31 14:09:21;;;;;;;;;;;20.80;54.40;;;;;;5053838;28;1338;-68
2021/12/31 14:11:46;;;;;;;;;;;20.80;54.50;;;;;;5053715;28;1898;-68
2021/12/31 14:14:12;;;;;;;;;;;20.80;54.50;;;;;;5052965;28;1352;-68
2021/12/31 14:16:37;;;;;;;;;;;20.80;54.50;;;;;;5051829;28;1221;-68
2021/12/31 14:19:02;;;;;;;;;;;20.80;54.50;;;;;;5053843;28;916;-68
2021/12/31 14:21:29;;;;;;;;;;;20.80;54.50;;;;;;5053421;28;1130;-68
2021/12/31 14:23:54;;;;;;;;;;;20.70;54.50;;;;;;5052791;28;1201;-68
2021/12/31 14:26:20;;;;;;;;;;;20.70;54.50;;;;;;5053168;28;1407;-68
2021/12/31 14:28:47;;;;;;;;;;;20.70;54.50;;;;;;5053521;28;1275;-69
2021/12/31 14:31:12;;;;;;;;;;;20.70;55.10;;;;;;5052693;28;1083;-68
2021/12/31 14:33:37;;;;;;;;;;;20.70;54.60;;;;;;5053241;28;1906;-68